»·PEaware :: N165YP KOLM-KHQM

N165YP :: KOLM-KHQM

FLIGHT INFORMATION

Flight Status: Arrived
Operator: Privately registered:
United States
More flights under this callsign
Pilot: Allen F. (27411)
Aircraft: BEECH AIRCRAFT BARON
(BE58)
More flights by this aircraft type
Origin: KOLM Olympia
United States
Destination: KHQM Bowerman
United States
More flights between these airports :: More routes between these airports
Route: +YLM5 OLM HQM
File this flight plan on PilotEdge
Remarks: I'd like to fly the VOR RWY 6, go missed and fly the ILS RWY 24 from ZEDAT to land. Thank you
Altitude:
(Current/Filed)
4,000ft
Speed:
(Current/Filed)
175kts
Departed: 04-Nov-20 04:23 PM
Arrived: 04-Nov-20 05:38 PM
Distance/Time
Traveled:
42nm/1:14
Distance/Time
To Go:
Arrived

Flight Plot

Page will automatically refresh every two minutes.

Flight plan parsing failed; only flown route is shown


Map Options




Map Legend


Flown Route
Filed Route
Departure Airport
Arrival Airport
Navaid (VOR, NDB)
Fix

Horizontal Profiles

Position Reports

Time Latitude Longitude Heading Altitude Ground
Speed
04-Nov-20 16:11 46.976207 -122.899644 257 212ft 0kts
04-Nov-20 16:12 46.976207 -122.899644 257 212ft 0kts
04-Nov-20 16:13 46.976207 -122.899644 257 212ft 0kts
04-Nov-20 16:14 46.976207 -122.899644 257 212ft 0kts
04-Nov-20 16:15 46.976207 -122.899644 257 212ft 0kts
04-Nov-20 16:16 46.976355 -122.900169 338 212ft 10kts
04-Nov-20 16:17 46.976392 -122.900616 192 212ft 0kts
04-Nov-20 16:18 46.976392 -122.900616 193 212ft 0kts
04-Nov-20 16:19 46.976392 -122.900616 193 212ft 0kts
04-Nov-20 16:20 46.976392 -122.900616 193 212ft 0kts
04-Nov-20 16:21 46.976139 -122.901134 279 212ft 2kts
04-Nov-20 16:22 46.974245 -122.903014 190 212ft 68kts
04-Nov-20 16:23 46.945182 -122.892188 82 1483ft 137kts
04-Nov-20 16:24 46.958310 -122.839859 28 2535ft 152kts
04-Nov-20 16:25 46.978892 -122.876941 249 3761ft 153kts
04-Nov-20 16:26 46.956970 -122.933188 254 3914ft 159kts
04-Nov-20 16:27 46.955402 -122.996170 274 3949ft 148kts
04-Nov-20 16:28 46.960575 -123.058938 280 4020ft 152kts
04-Nov-20 16:29 46.967370 -123.121173 272 3926ft 158kts
04-Nov-20 16:30 46.968972 -123.184618 270 3938ft 154kts
04-Nov-20 16:31 46.970611 -123.247944 274 3943ft 153kts
04-Nov-20 16:32 46.976699 -123.309305 282 4060ft 157kts
04-Nov-20 16:33 46.972667 -123.377726 255 4066ft 189kts
04-Nov-20 16:34 46.967272 -123.450641 259 4218ft 184kts
04-Nov-20 16:35 46.956552 -123.523523 234 4051ft 183kts
04-Nov-20 16:36 46.945455 -123.594546 267 4148ft 180kts
04-Nov-20 16:37 46.946283 -123.667217 268 4133ft 182kts
04-Nov-20 16:38 46.945162 -123.747741 269 4050ft 184kts
04-Nov-20 16:39 46.944726 -123.822292 269 3999ft 187kts
04-Nov-20 16:40 46.944670 -123.898755 270 3918ft 189kts
04-Nov-20 16:41 46.944770 -123.971493 268 4122ft 184kts
04-Nov-20 16:42 46.944040 -124.047403 269 4356ft 174kts
04-Nov-20 16:43 46.944503 -124.117336 267 4650ft 175kts
04-Nov-20 16:44 46.944172 -124.193246 268 3762ft 177kts
04-Nov-20 16:45 46.941905 -124.253259 265 4267ft 140kts
04-Nov-20 16:46 46.921156 -124.296181 202 4331ft 164kts
04-Nov-20 16:47 46.934680 -124.304314 77 2610ft 151kts
04-Nov-20 16:48 46.940706 -124.247672 80 1418ft 128kts
04-Nov-20 16:49 46.949058 -124.199673 82 1623ft 133kts
04-Nov-20 16:50 46.948357 -124.138426 86 1543ft 161kts
04-Nov-20 16:51 46.953295 -124.089803 77 818ft 133kts
04-Nov-20 16:52 46.960307 -124.039665 91 838ft 116kts
04-Nov-20 16:53 46.965702 -123.990658 78 642ft 117kts
04-Nov-20 16:54 46.970285 -123.945662 86 620ft 116kts
04-Nov-20 16:55 46.959033 -123.903572 173 1942ft 140kts
04-Nov-20 16:56 46.941556 -123.952840 254 2924ft 171kts
04-Nov-20 16:57 46.939942 -124.028105 277 2448ft 199kts
04-Nov-20 16:58 46.940465 -124.103040 266 2924ft 175kts
04-Nov-20 16:59 46.935200 -124.176272 260 3053ft 183kts
04-Nov-20 17:00 46.903476 -124.213467 150 3175ft 185kts
04-Nov-20 17:01 46.918381 -124.165710 16 3096ft 181kts
04-Nov-20 17:02 46.966010 -124.135835 70 2831ft 198kts
04-Nov-20 17:04 46.938052 -124.095014 211 2858ft 190kts
04-Nov-20 17:05 46.925753 -124.165796 261 3153ft 170kts
04-Nov-20 17:06 46.930734 -124.230881 317 3752ft 172kts
04-Nov-20 17:07 46.960277 -124.196500 102 3073ft 189kts
04-Nov-20 17:08 46.947560 -124.125546 105 3739ft 160kts
04-Nov-20 17:09 46.913864 -124.088114 183 4124ft 177kts
04-Nov-20 17:10 46.867751 -124.074094 172 4717ft 173kts
04-Nov-20 17:11 46.823908 -124.094398 215 5288ft 169kts
04-Nov-20 17:12 46.788014 -124.138972 197 4761ft 170kts
04-Nov-20 17:13 46.745105 -124.164616 189 4540ft 164kts
04-Nov-20 17:14 46.698301 -124.156394 168 4056ft 170kts
04-Nov-20 17:15 46.655018 -124.160496 196 4417ft 151kts
04-Nov-20 17:16 46.610412 -124.168552 173 4223ft 160kts
04-Nov-20 17:17 46.601066 -124.110204 85 4185ft 153kts
04-Nov-20 17:18 46.606046 -124.046858 74 4091ft 165kts
04-Nov-20 17:18 46.616071 -123.995014 71 3250ft 154kts
04-Nov-20 17:20 46.633759 -123.933569 62 2634ft 129kts
04-Nov-20 17:20 46.648358 -123.890401 62 3180ft 143kts
04-Nov-20 17:22 46.680548 -123.831674 38 3191ft 172kts
04-Nov-20 17:22 46.700628 -123.794445 54 2878ft 159kts
04-Nov-20 17:23 46.732425 -123.741652 39 2128ft 164kts
04-Nov-20 17:24 46.762937 -123.707996 31 2409ft 124kts
04-Nov-20 17:25 46.791351 -123.681359 31 2455ft 128kts
04-Nov-20 17:26 46.817162 -123.660999 25 2296ft 141kts
04-Nov-20 17:27 46.859507 -123.637519 18 2057ft 145kts
04-Nov-20 17:28 46.896245 -123.627567 1 2191ft 132kts
04-Nov-20 17:29 46.927539 -123.626385 358 2551ft 113kts
04-Nov-20 17:30 46.963098 -123.621293 337 2273ft 137kts
04-Nov-20 17:31 46.970504 -123.672031 258 2173ft 138kts
04-Nov-20 17:32 46.978906 -123.721519 309 2356ft 125kts
04-Nov-20 17:33 46.992863 -123.762125 283 2567ft 121kts
04-Nov-20 17:34 46.987167 -123.817573 248 2342ft 117kts
04-Nov-20 17:35 46.978986 -123.867571 268 1119ft 123kts
04-Nov-20 17:36 46.974150 -123.913761 260 304ft 117kts
04-Nov-20 17:37 46.971776 -123.939805 40 22ft 21kts
04-Nov-20 17:38 46.973411 -123.929104 78 22ft 24kts
04-Nov-20 17:39 46.973964 -123.927824 359 22ft 0kts
04-Nov-20 17:40 46.973964 -123.927824 359 22ft 0kts
04-Nov-20 17:41 46.973964 -123.927824 359 22ft 0kts
04-Nov-20 17:42 46.973964 -123.927824 359 22ft 0kts
04-Nov-20 17:43 46.973964 -123.927824 359 22ft 0kts
04-Nov-20 17:44 46.973964 -123.927824 359 22ft 0kts
04-Nov-20 17:45 46.973964 -123.927824 359 22ft 0kts
04-Nov-20 17:46 46.973964 -123.927824 359 22ft 0kts
04-Nov-20 17:47 46.973964 -123.927824 359 22ft 0kts
04-Nov-20 17:48 46.973964 -123.927824 359 22ft 0kts
04-Nov-20 17:49 46.973964 -123.927824 359 22ft 0kts
04-Nov-20 17:50 46.973964 -123.927824 359 22ft 0kts
04-Nov-20 17:51 46.973964 -123.927824 359 22ft 0kts

Navigation Log

Ident Type
Flight plan parsing failed, navigation log unavailable